sensor_id;sensor_type;location;lat;lon;timestamp;temperature;humidity
71514;DHT22;59335;46.652;21.272;2023-02-28T00:01:00;22.57;29.43
71514;DHT22;59335;46.652;21.272;2023-02-28T00:04:02;22.58;29.37
71514;DHT22;59335;46.652;21.272;2023-02-28T00:07:05;22.58;29.40
71514;DHT22;59335;46.652;21.272;2023-02-28T00:10:11;22.57;29.40
71514;DHT22;59335;46.652;21.272;2023-02-28T00:13:15;22.55;29.28
71514;DHT22;59335;46.652;21.272;2023-02-28T00:16:20;22.57;29.33
71514;DHT22;59335;46.652;21.272;2023-02-28T00:19:23;22.57;29.29
71514;DHT22;59335;46.652;21.272;2023-02-28T00:22:26;22.54;29.35
71514;DHT22;59335;46.652;21.272;2023-02-28T00:25:28;22.55;29.28
71514;DHT22;59335;46.652;21.272;2023-02-28T00:28:31;22.55;29.19
71514;DHT22;59335;46.652;21.272;2023-02-28T00:31:34;22.57;29.26
71514;DHT22;59335;46.652;21.272;2023-02-28T00:34:36;22.57;29.20
71514;DHT22;59335;46.652;21.272;2023-02-28T00:37:40;22.54;29.16
71514;DHT22;59335;46.652;21.272;2023-02-28T00:40:43;22.55;29.17
71514;DHT22;59335;46.652;21.272;2023-02-28T00:43:46;22.54;29.12
71514;DHT22;59335;46.652;21.272;2023-02-28T00:46:48;22.55;29.04
71514;DHT22;59335;46.652;21.272;2023-02-28T00:49:51;22.55;29.13
71514;DHT22;59335;46.652;21.272;2023-02-28T00:52:54;22.55;29.10
71514;DHT22;59335;46.652;21.272;2023-02-28T00:55:56;22.55;29.06
71514;DHT22;59335;46.652;21.272;2023-02-28T00:59:00;22.54;29.05
71514;DHT22;59335;46.652;21.272;2023-02-28T01:02:03;22.55;29.06
71514;DHT22;59335;46.652;21.272;2023-02-28T01:05:06;22.55;29.11
71514;DHT22;59335;46.652;21.272;2023-02-28T01:08:09;22.54;29.04
71514;DHT22;59335;46.652;21.272;2023-02-28T01:11:14;22.54;29.01
71514;DHT22;59335;46.652;21.272;2023-02-28T01:14:18;22.53;29.02
71514;DHT22;59335;46.652;21.272;2023-02-28T01:17:20;22.53;29.00
71514;DHT22;59335;46.652;21.272;2023-02-28T01:20:23;22.50;28.93
71514;DHT22;59335;46.652;21.272;2023-02-28T01:23:26;22.53;28.99
71514;DHT22;59335;46.652;21.272;2023-02-28T01:26:29;22.54;28.93
71514;DHT22;59335;46.652;21.272;2023-02-28T01:29:32;22.53;28.93
71514;DHT22;59335;46.652;21.272;2023-02-28T01:32:36;22.54;28.93
71514;DHT22;59335;46.652;21.272;2023-02-28T01:35:39;22.53;28.90
71514;DHT22;59335;46.652;21.272;2023-02-28T01:38:43;22.53;28.91
71514;DHT22;59335;46.652;21.272;2023-02-28T01:41:46;22.54;28.87
71514;DHT22;59335;46.652;21.272;2023-02-28T01:48:07;22.53;28.84
71514;DHT22;59335;46.652;21.272;2023-02-28T01:51:14;22.53;28.85
71514;DHT22;59335;46.652;21.272;2023-02-28T01:54:26;22.54;28.82
71514;DHT22;59335;46.652;21.272;2023-02-28T01:57:34;22.53;28.84
71514;DHT22;59335;46.652;21.272;2023-02-28T02:00:40;22.51;28.79
71514;DHT22;59335;46.652;21.272;2023-02-28T02:03:45;22.50;28.77
71514;DHT22;59335;46.652;21.272;2023-02-28T02:06:48;22.51;28.74
71514;DHT22;59335;46.652;21.272;2023-02-28T02:10:00;22.55;28.73
71514;DHT22;59335;46.652;21.272;2023-02-28T02:23:39;22.51;28.67
71514;DHT22;59335;46.652;21.272;2023-02-28T02:37:29;22.51;28.67
71514;DHT22;59335;46.652;21.272;2023-02-28T02:40:51;22.47;28.61
71514;DHT22;59335;46.652;21.272;2023-02-28T02:44:20;22.53;28.70
71514;DHT22;59335;46.652;21.272;2023-02-28T02:47:26;22.50;28.67
71514;DHT22;59335;46.652;21.272;2023-02-28T02:50:34;22.50;28.64
71514;DHT22;59335;46.652;21.272;2023-02-28T02:53:55;22.50;28.62
71514;DHT22;59335;46.652;21.272;2023-02-28T02:57:03;22.50;28.62
71514;DHT22;59335;46.652;21.272;2023-02-28T03:00:08;22.47;28.57
71514;DHT22;59335;46.652;21.272;2023-02-28T03:03:12;22.50;28.64
71514;DHT22;59335;46.652;21.272;2023-02-28T03:06:15;22.48;28.68
71514;DHT22;59335;46.652;21.272;2023-02-28T03:09:18;22.47;28.65
71514;DHT22;59335;46.652;21.272;2023-02-28T03:12:23;22.51;28.55
71514;DHT22;59335;46.652;21.272;2023-02-28T03:15:40;22.48;28.61
71514;DHT22;59335;46.652;21.272;2023-02-28T03:19:03;22.51;28.59
71514;DHT22;59335;46.652;21.272;2023-02-28T03:32:02;22.48;28.55
71514;DHT22;59335;46.652;21.272;2023-02-28T03:35:22;22.48;28.57
71514;DHT22;59335;46.652;21.272;2023-02-28T03:38:33;22.47;28.56
71514;DHT22;59335;46.652;21.272;2023-02-28T03:41:43;22.48;28.52
71514;DHT22;59335;46.652;21.272;2023-02-28T03:45:10;22.50;28.48
71514;DHT22;59335;46.652;21.272;2023-02-28T03:48:44;22.48;28.50
71514;DHT22;59335;46.652;21.272;2023-02-28T03:51:49;22.48;28.41
71514;DHT22;59335;46.652;21.272;2023-02-28T03:54:56;22.48;28.48
71514;DHT22;59335;46.652;21.272;2023-02-28T03:58:27;22.50;28.42
71514;DHT22;59335;46.652;21.272;2023-02-28T04:01:45;22.47;28.47
71514;DHT22;59335;46.652;21.272;2023-02-28T04:04:48;22.47;28.47
71514;DHT22;59335;46.652;21.272;2023-02-28T04:07:51;22.48;28.42
71514;DHT22;59335;46.652;21.272;2023-02-28T04:11:06;22.46;28.42
71514;DHT22;59335;46.652;21.272;2023-02-28T04:14:15;22.48;28.41
71514;DHT22;59335;46.652;21.272;2023-02-28T04:17:17;22.46;28.45
71514;DHT22;59335;46.652;21.272;2023-02-28T04:20:21;22.44;28.41
71514;DHT22;59335;46.652;21.272;2023-02-28T04:23:23;22.46;28.44
71514;DHT22;59335;46.652;21.272;2023-02-28T04:26:35;22.48;28.45
71514;DHT22;59335;46.652;21.272;2023-02-28T04:29:38;22.48;28.48
71514;DHT22;59335;46.652;21.272;2023-02-28T04:32:41;22.47;28.48
71514;DHT22;59335;46.652;21.272;2023-02-28T04:35:43;22.44;28.48
71514;DHT22;59335;46.652;21.272;2023-02-28T04:38:48;22.47;28.46
71514;DHT22;59335;46.652;21.272;2023-02-28T04:41:51;22.44;28.51
71514;DHT22;59335;46.652;21.272;2023-02-28T04:44:54;22.47;28.47
71514;DHT22;59335;46.652;21.272;2023-02-28T04:47:56;22.47;28.45
71514;DHT22;59335;46.652;21.272;2023-02-28T04:54:05;22.44;28.48
71514;DHT22;59335;46.652;21.272;2023-02-28T04:57:08;22.41;28.54
71514;DHT22;59335;46.652;21.272;2023-02-28T05:00:13;22.44;28.56
71514;DHT22;59335;46.652;21.272;2023-02-28T05:03:20;22.44;28.51
71514;DHT22;59335;46.652;21.272;2023-02-28T05:06:26;22.46;28.53
71514;DHT22;59335;46.652;21.272;2023-02-28T05:09:29;22.46;28.53
71514;DHT22;59335;46.652;21.272;2023-02-28T05:12:32;22.44;28.56
71514;DHT22;59335;46.652;21.272;2023-02-28T05:15:35;22.43;28.56
71514;DHT22;59335;46.652;21.272;2023-02-28T05:18:38;22.43;28.56
71514;DHT22;59335;46.652;21.272;2023-02-28T05:21:49;22.47;28.55
71514;DHT22;59335;46.652;21.272;2023-02-28T05:24:53;22.43;28.56
71514;DHT22;59335;46.652;21.272;2023-02-28T05:27:56;22.44;28.54
71514;DHT22;59335;46.652;21.272;2023-02-28T05:30:59;22.43;28.57
71514;DHT22;59335;46.652;21.272;2023-02-28T05:34:02;22.41;28.57
71514;DHT22;59335;46.652;21.272;2023-02-28T05:37:11;22.41;28.60
71514;DHT22;59335;46.652;21.272;2023-02-28T05:40:15;22.44;28.58
71514;DHT22;59335;46.652;21.272;2023-02-28T05:43:17;22.41;28.55
71514;DHT22;59335;46.652;21.272;2023-02-28T05:46:20;22.43;28.65
71514;DHT22;59335;46.652;21.272;2023-02-28T05:49:23;22.41;28.63
71514;DHT22;59335;46.652;21.272;2023-02-28T05:52:27;22.43;28.62
71514;DHT22;59335;46.652;21.272;2023-02-28T05:55:32;22.43;28.59
71514;DHT22;59335;46.652;21.272;2023-02-28T05:58:34;22.43;28.63
71514;DHT22;59335;46.652;21.272;2023-02-28T06:01:40;22.44;28.65
71514;DHT22;59335;46.652;21.272;2023-02-28T06:04:43;22.39;28.64
71514;DHT22;59335;46.652;21.272;2023-02-28T06:07:46;22.43;28.77
71514;DHT22;59335;46.652;21.272;2023-02-28T06:10:49;22.41;28.84
71514;DHT22;59335;46.652;21.272;2023-02-28T06:13:57;22.41;28.86
71514;DHT22;59335;46.652;21.272;2023-02-28T06:17:02;22.33;29.08
71514;DHT22;59335;46.652;21.272;2023-02-28T06:20:05;22.37;29.40
71514;DHT22;59335;46.652;21.272;2023-02-28T06:23:09;22.41;29.59
71514;DHT22;59335;46.652;21.272;2023-02-28T06:26:12;22.44;29.74
71514;DHT22;59335;46.652;21.272;2023-02-28T06:29:16;22.48;29.64
71514;DHT22;59335;46.652;21.272;2023-02-28T06:32:20;22.50;29.58
71514;DHT22;59335;46.652;21.272;2023-02-28T06:35:23;22.54;29.66
71514;DHT22;59335;46.652;21.272;2023-02-28T06:38:27;22.55;29.96
71514;DHT22;59335;46.652;21.272;2023-02-28T06:41:30;22.63;29.91
71514;DHT22;59335;46.652;21.272;2023-02-28T06:44:53;22.68;30.43
71514;DHT22;59335;46.652;21.272;2023-02-28T06:47:55;22.71;30.58
71514;DHT22;59335;46.652;21.272;2023-02-28T06:51:10;22.72;30.72
71514;DHT22;59335;46.652;21.272;2023-02-28T06:54:14;22.78;30.78
71514;DHT22;59335;46.652;21.272;2023-02-28T06:57:16;22.81;31.12
71514;DHT22;59335;46.652;21.272;2023-02-28T07:00:22;22.81;32.32
71514;DHT22;59335;46.652;21.272;2023-02-28T07:03:26;22.76;32.44
71514;DHT22;59335;46.652;21.272;2023-02-28T07:06:28;22.85;32.40
71514;DHT22;59335;46.652;21.272;2023-02-28T07:09:32;22.87;32.14
71514;DHT22;59335;46.652;21.272;2023-02-28T07:12:36;22.87;31.85
71514;DHT22;59335;46.652;21.272;2023-02-28T07:19:54;22.90;31.82
71514;DHT22;59335;46.652;21.272;2023-02-28T07:23:29;22.91;31.86
71514;DHT22;59335;46.652;21.272;2023-02-28T07:26:50;22.94;31.83
71514;DHT22;59335;46.652;21.272;2023-02-28T07:29:54;22.92;31.90
71514;DHT22;59335;46.652;21.272;2023-02-28T07:32:57;22.91;31.93
71514;DHT22;59335;46.652;21.272;2023-02-28T07:36:06;22.94;32.01
71514;DHT22;59335;46.652;21.272;2023-02-28T07:39:09;22.92;32.06
71514;DHT22;59335;46.652;21.272;2023-02-28T07:42:13;22.95;32.06
71514;DHT22;59335;46.652;21.272;2023-02-28T07:45:17;22.92;32.47
71514;DHT22;59335;46.652;21.272;2023-02-28T07:48:20;22.96;32.28
71514;DHT22;59335;46.652;21.272;2023-02-28T07:51:23;22.91;32.70
71514;DHT22;59335;46.652;21.272;2023-02-28T07:54:26;22.90;32.69
71514;DHT22;59335;46.652;21.272;2023-02-28T07:57:31;22.92;33.10
71514;DHT22;59335;46.652;21.272;2023-02-28T08:00:37;22.46;30.86
71514;DHT22;59335;46.652;21.272;2023-02-28T08:03:41;22.61;32.01
71514;DHT22;59335;46.652;21.272;2023-02-28T08:06:43;22.67;32.29
71514;DHT22;59335;46.652;21.272;2023-02-28T08:09:46;22.72;32.37
71514;DHT22;59335;46.652;21.272;2023-02-28T08:12:49;22.78;32.38
71514;DHT22;59335;46.652;21.272;2023-02-28T08:15:53;22.81;32.46
71514;DHT22;59335;46.652;21.272;2023-02-28T08:18:57;22.85;32.43
71514;DHT22;59335;46.652;21.272;2023-02-28T08:22:00;22.90;32.47
71514;DHT22;59335;46.652;21.272;2023-02-28T08:25:05;22.92;32.54
71514;DHT22;59335;46.652;21.272;2023-02-28T08:28:10;22.95;32.40
71514;DHT22;59335;46.652;21.272;2023-02-28T08:31:14;22.94;32.45
71514;DHT22;59335;46.652;21.272;2023-02-28T08:34:17;22.98;32.52
71514;DHT22;59335;46.652;21.272;2023-02-28T08:37:20;22.99;32.61
71514;DHT22;59335;46.652;21.272;2023-02-28T08:40:23;23.03;32.61
71514;DHT22;59335;46.652;21.272;2023-02-28T08:43:28;23.03;32.64
71514;DHT22;59335;46.652;21.272;2023-02-28T08:46:31;23.05;32.47
71514;DHT22;59335;46.652;21.272;2023-02-28T08:49:34;23.02;32.70
71514;DHT22;59335;46.652;21.272;2023-02-28T08:52:37;23.02;32.74
71514;DHT22;59335;46.652;21.272;2023-02-28T08:55:41;23.03;33.05
71514;DHT22;59335;46.652;21.272;2023-02-28T08:58:48;23.02;33.54
71514;DHT22;59335;46.652;21.272;2023-02-28T09:01:54;23.06;33.72
71514;DHT22;59335;46.652;21.272;2023-02-28T09:04:57;23.08;33.86
71514;DHT22;59335;46.652;21.272;2023-02-28T09:08:00;23.09;33.87
71514;DHT22;59335;46.652;21.272;2023-02-28T09:11:04;23.08;33.81
71514;DHT22;59335;46.652;21.272;2023-02-28T09:14:08;23.08;33.70
71514;DHT22;59335;46.652;21.272;2023-02-28T09:17:12;23.06;33.70
71514;DHT22;59335;46.652;21.272;2023-02-28T09:20:18;23.03;33.60
71514;DHT22;59335;46.652;21.272;2023-02-28T09:23:24;23.01;33.90
71514;DHT22;59335;46.652;21.272;2023-02-28T09:26:27;23.02;33.77
71514;DHT22;59335;46.652;21.272;2023-02-28T09:29:44;23.02;33.76
71514;DHT22;59335;46.652;21.272;2023-02-28T09:32:47;22.98;34.14
71514;DHT22;59335;46.652;21.272;2023-02-28T09:35:59;23.06;34.15
71514;DHT22;59335;46.652;21.272;2023-02-28T09:39:04;23.15;34.49
71514;DHT22;59335;46.652;21.272;2023-02-28T09:42:48;23.18;33.92
71514;DHT22;59335;46.652;21.272;2023-02-28T09:49:07;23.15;34.40
71514;DHT22;59335;46.652;21.272;2023-02-28T09:52:23;23.22;34.64
71514;DHT22;59335;46.652;21.272;2023-02-28T09:55:45;23.22;34.71
71514;DHT22;59335;46.652;21.272;2023-02-28T09:59:02;23.23;34.59
71514;DHT22;59335;46.652;21.272;2023-02-28T10:06:33;23.23;34.78
71514;DHT22;59335;46.652;21.272;2023-02-28T10:10:41;23.22;34.70
71514;DHT22;59335;46.652;21.272;2023-02-28T10:17:23;23.24;34.39
71514;DHT22;59335;46.652;21.272;2023-02-28T10:20:30;23.22;34.38
71514;DHT22;59335;46.652;21.272;2023-02-28T10:23:37;23.23;34.30
71514;DHT22;59335;46.652;21.272;2023-02-28T10:26:41;23.23;34.22
71514;DHT22;59335;46.652;21.272;2023-02-28T10:29:53;23.26;34.22
71514;DHT22;59335;46.652;21.272;2023-02-28T10:32:56;23.26;34.17
71514;DHT22;59335;46.652;21.272;2023-02-28T10:36:03;23.22;34.15
71514;DHT22;59335;46.652;21.272;2023-02-28T10:39:40;23.15;34.21
71514;DHT22;59335;46.652;21.272;2023-02-28T10:43:03;23.18;34.20
71514;DHT22;59335;46.652;21.272;2023-02-28T10:49:20;23.16;34.20
71514;DHT22;59335;46.652;21.272;2023-02-28T10:52:39;23.20;34.40
71514;DHT22;59335;46.652;21.272;2023-02-28T10:55:42;23.18;34.74
71514;DHT22;59335;46.652;21.272;2023-02-28T11:02:36;22.12;32.24
71514;DHT22;59335;46.652;21.272;2023-02-28T11:05:41;22.30;32.44
71514;DHT22;59335;46.652;21.272;2023-02-28T11:08:50;22.50;33.41
71514;DHT22;59335;46.652;21.272;2023-02-28T11:11:54;22.58;33.63
71514;DHT22;59335;46.652;21.272;2023-02-28T11:15:25;22.74;33.67
71514;DHT22;59335;46.652;21.272;2023-02-28T11:18:41;22.79;33.55
71514;DHT22;59335;46.652;21.272;2023-02-28T11:21:54;22.85;33.61
71514;DHT22;59335;46.652;21.272;2023-02-28T11:25:00;22.90;33.52
71514;DHT22;59335;46.652;21.272;2023-02-28T11:28:28;22.94;33.47
71514;DHT22;59335;46.652;21.272;2023-02-28T11:31:29;22.95;33.48
71514;DHT22;59335;46.652;21.272;2023-02-28T11:34:34;22.98;33.49
71514;DHT22;59335;46.652;21.272;2023-02-28T11:37:39;23.01;33.44
71514;DHT22;59335;46.652;21.272;2023-02-28T11:40:48;23.03;33.49
71514;DHT22;59335;46.652;21.272;2023-02-28T11:47:21;22.96;33.72
71514;DHT22;59335;46.652;21.272;2023-02-28T12:11:19;23.18;34.62
71514;DHT22;59335;46.652;21.272;2023-02-28T12:18:17;23.23;34.71
71514;DHT22;59335;46.652;21.272;2023-02-28T12:21:39;23.29;34.90
71514;DHT22;59335;46.652;21.272;2023-02-28T12:28:09;23.27;34.84
71514;DHT22;59335;46.652;21.272;2023-02-28T12:31:18;23.29;34.93
71514;DHT22;59335;46.652;21.272;2023-02-28T12:34:27;23.30;34.91
71514;DHT22;59335;46.652;21.272;2023-02-28T12:37:35;23.32;35.10
71514;DHT22;59335;46.652;21.272;2023-02-28T12:40:47;23.29;35.42
71514;DHT22;59335;46.652;21.272;2023-02-28T12:44:02;23.29;35.18
71514;DHT22;59335;46.652;21.272;2023-02-28T12:47:14;23.29;35.28
71514;DHT22;59335;46.652;21.272;2023-02-28T12:50:19;23.22;36.09
71514;DHT22;59335;46.652;21.272;2023-02-28T13:00:08;23.20;36.57
71514;DHT22;59335;46.652;21.272;2023-02-28T13:10:05;23.19;35.82
71514;DHT22;59335;46.652;21.272;2023-02-28T13:13:18;23.19;35.71
71514;DHT22;59335;46.652;21.272;2023-02-28T13:16:21;23.19;35.72
71514;DHT22;59335;46.652;21.272;2023-02-28T13:19:30;23.18;35.69
71514;DHT22;59335;46.652;21.272;2023-02-28T13:35:14;23.11;35.29
71514;DHT22;59335;46.652;21.272;2023-02-28T13:38:23;23.15;35.32
71514;DHT22;59335;46.652;21.272;2023-02-28T13:48:17;23.09;35.32
71514;DHT22;59335;46.652;21.272;2023-02-28T13:51:41;23.08;35.70
71514;DHT22;59335;46.652;21.272;2023-02-28T14:01:49;23.19;35.31
71514;DHT22;59335;46.652;21.272;2023-02-28T14:05:06;23.18;35.32
71514;DHT22;59335;46.652;21.272;2023-02-28T14:08:20;23.15;35.21
71514;DHT22;59335;46.652;21.272;2023-02-28T14:11:32;23.13;35.03
71514;DHT22;59335;46.652;21.272;2023-02-28T14:17:40;23.12;35.10
71514;DHT22;59335;46.652;21.272;2023-02-28T14:20:43;23.12;34.98
71514;DHT22;59335;46.652;21.272;2023-02-28T14:27:27;23.15;34.93
71514;DHT22;59335;46.652;21.272;2023-02-28T14:37:20;23.11;34.89
71514;DHT22;59335;46.652;21.272;2023-02-28T14:40:33;23.15;34.83
71514;DHT22;59335;46.652;21.272;2023-02-28T14:43:37;23.13;34.80
71514;DHT22;59335;46.652;21.272;2023-02-28T14:46:55;23.15;34.86
71514;DHT22;59335;46.652;21.272;2023-02-28T14:50:24;23.13;34.87
71514;DHT22;59335;46.652;21.272;2023-02-28T14:53:35;23.15;34.87
71514;DHT22;59335;46.652;21.272;2023-02-28T14:56:39;23.13;34.86
71514;DHT22;59335;46.652;21.272;2023-02-28T14:59:42;23.12;34.88
71514;DHT22;59335;46.652;21.272;2023-02-28T15:02:45;23.15;34.89
71514;DHT22;59335;46.652;21.272;2023-02-28T15:05:57;23.12;34.88
71514;DHT22;59335;46.652;21.272;2023-02-28T15:09:14;23.13;34.91
71514;DHT22;59335;46.652;21.272;2023-02-28T15:12:17;23.13;34.91
71514;DHT22;59335;46.652;21.272;2023-02-28T15:15:21;23.12;34.94
71514;DHT22;59335;46.652;21.272;2023-02-28T15:18:44;23.11;35.02
71514;DHT22;59335;46.652;21.272;2023-02-28T15:21:52;23.06;34.76
71514;DHT22;59335;46.652;21.272;2023-02-28T15:24:57;23.02;34.67
71514;DHT22;59335;46.652;21.272;2023-02-28T15:28:01;22.99;34.50
71514;DHT22;59335;46.652;21.272;2023-02-28T15:31:19;22.96;34.30
71514;DHT22;59335;46.652;21.272;2023-02-28T15:37:52;22.92;34.21
71514;DHT22;59335;46.652;21.272;2023-02-28T15:40:58;22.91;34.15
71514;DHT22;59335;46.652;21.272;2023-02-28T15:44:16;22.91;34.08
71514;DHT22;59335;46.652;21.272;2023-02-28T15:47:22;22.91;34.04
71514;DHT22;59335;46.652;21.272;2023-02-28T15:50:27;22.87;33.97
71514;DHT22;59335;46.652;21.272;2023-02-28T15:53:41;22.87;33.87
71514;DHT22;59335;46.652;21.272;2023-02-28T15:56:51;22.88;33.84
71514;DHT22;59335;46.652;21.272;2023-02-28T15:59:57;22.84;33.82
71514;DHT22;59335;46.652;21.272;2023-02-28T16:03:01;22.82;33.75
71514;DHT22;59335;46.652;21.272;2023-02-28T16:09:25;22.69;36.44
71514;DHT22;59335;46.652;21.272;2023-02-28T16:12:31;22.72;35.62
71514;DHT22;59335;46.652;21.272;2023-02-28T16:15:39;22.75;35.54
71514;DHT22;59335;46.652;21.272;2023-02-28T16:18:45;22.78;35.55
71514;DHT22;59335;46.652;21.272;2023-02-28T16:21:48;22.79;35.43
71514;DHT22;59335;46.652;21.272;2023-02-28T16:24:51;22.81;35.23
71514;DHT22;59335;46.652;21.272;2023-02-28T16:27:55;22.81;35.10
71514;DHT22;59335;46.652;21.272;2023-02-28T16:31:01;22.82;35.15
71514;DHT22;59335;46.652;21.272;2023-02-28T16:34:07;22.84;35.12
71514;DHT22;59335;46.652;21.272;2023-02-28T16:37:15;22.85;35.18
71514;DHT22;59335;46.652;21.272;2023-02-28T16:40:20;22.81;35.18
71514;DHT22;59335;46.652;21.272;2023-02-28T16:43:26;22.82;35.22
71514;DHT22;59335;46.652;21.272;2023-02-28T16:46:34;22.87;35.16
71514;DHT22;59335;46.652;21.272;2023-02-28T16:49:38;22.84;35.15
71514;DHT22;59335;46.652;21.272;2023-02-28T16:52:41;22.82;35.15
71514;DHT22;59335;46.652;21.272;2023-02-28T16:55:44;22.84;35.11
71514;DHT22;59335;46.652;21.272;2023-02-28T16:58:48;22.84;35.06
71514;DHT22;59335;46.652;21.272;2023-02-28T17:01:52;22.84;35.01
71514;DHT22;59335;46.652;21.272;2023-02-28T17:04:56;22.85;34.95
71514;DHT22;59335;46.652;21.272;2023-02-28T17:07:59;22.84;34.97
71514;DHT22;59335;46.652;21.272;2023-02-28T17:11:02;22.88;34.97
71514;DHT22;59335;46.652;21.272;2023-02-28T17:14:06;22.84;35.07
71514;DHT22;59335;46.652;21.272;2023-02-28T17:17:18;22.87;35.11
71514;DHT22;59335;46.652;21.272;2023-02-28T17:20:25;22.87;35.22
71514;DHT22;59335;46.652;21.272;2023-02-28T17:23:29;22.88;35.34
71514;DHT22;59335;46.652;21.272;2023-02-28T17:26:32;22.90;35.36
71514;DHT22;59335;46.652;21.272;2023-02-28T17:29:35;22.87;35.32
71514;DHT22;59335;46.652;21.272;2023-02-28T17:32:39;22.87;35.34
71514;DHT22;59335;46.652;21.272;2023-02-28T17:35:42;22.90;35.35
71514;DHT22;59335;46.652;21.272;2023-02-28T17:38:46;22.88;35.23
71514;DHT22;59335;46.652;21.272;2023-02-28T17:41:52;22.85;35.10
71514;DHT22;59335;46.652;21.272;2023-02-28T17:44:57;22.87;34.99
71514;DHT22;59335;46.652;21.272;2023-02-28T17:48:00;22.85;34.85
71514;DHT22;59335;46.652;21.272;2023-02-28T17:51:05;22.84;34.84
71514;DHT22;59335;46.652;21.272;2023-02-28T17:54:08;22.82;34.79
71514;DHT22;59335;46.652;21.272;2023-02-28T17:57:14;22.84;34.70
71514;DHT22;59335;46.652;21.272;2023-02-28T18:00:18;22.85;34.63
71514;DHT22;59335;46.652;21.272;2023-02-28T18:03:21;22.85;34.65
71514;DHT22;59335;46.652;21.272;2023-02-28T18:06:35;22.82;34.55
71514;DHT22;59335;46.652;21.272;2023-02-28T18:09:38;22.84;34.58
71514;DHT22;59335;46.652;21.272;2023-02-28T18:12:41;22.81;34.48
71514;DHT22;59335;46.652;21.272;2023-02-28T18:15:46;22.81;34.45
71514;DHT22;59335;46.652;21.272;2023-02-28T18:18:54;22.81;34.45
71514;DHT22;59335;46.652;21.272;2023-02-28T18:21:58;22.81;34.38
71514;DHT22;59335;46.652;21.272;2023-02-28T18:25:03;22.81;34.37
71514;DHT22;59335;46.652;21.272;2023-02-28T18:28:06;22.79;34.32
71514;DHT22;59335;46.652;21.272;2023-02-28T18:31:12;22.81;34.32
71514;DHT22;59335;46.652;21.272;2023-02-28T18:34:19;22.79;34.28
71514;DHT22;59335;46.652;21.272;2023-02-28T18:37:23;22.81;34.25
71514;DHT22;59335;46.652;21.272;2023-02-28T18:40:29;22.81;34.17
71514;DHT22;59335;46.652;21.272;2023-02-28T18:43:35;22.82;34.14
71514;DHT22;59335;46.652;21.272;2023-02-28T18:46:41;22.81;34.11
71514;DHT22;59335;46.652;21.272;2023-02-28T18:49:44;22.79;34.14
71514;DHT22;59335;46.652;21.272;2023-02-28T18:52:49;22.81;34.08
71514;DHT22;59335;46.652;21.272;2023-02-28T18:55:59;22.79;34.07
71514;DHT22;59335;46.652;21.272;2023-02-28T18:59:07;22.81;34.06
71514;DHT22;59335;46.652;21.272;2023-02-28T19:02:12;22.78;34.03
71514;DHT22;59335;46.652;21.272;2023-02-28T19:05:16;22.79;33.97
71514;DHT22;59335;46.652;21.272;2023-02-28T19:08:22;22.79;34.00
71514;DHT22;59335;46.652;21.272;2023-02-28T19:11:26;22.79;33.92
71514;DHT22;59335;46.652;21.272;2023-02-28T19:14:31;22.79;33.90
71514;DHT22;59335;46.652;21.272;2023-02-28T19:17:34;22.81;33.90
71514;DHT22;59335;46.652;21.272;2023-02-28T19:20:40;22.79;33.92
71514;DHT22;59335;46.652;21.272;2023-02-28T19:23:44;22.79;33.85
71514;DHT22;59335;46.652;21.272;2023-02-28T19:26:48;22.78;33.87
71514;DHT22;59335;46.652;21.272;2023-02-28T19:29:52;22.78;33.83
71514;DHT22;59335;46.652;21.272;2023-02-28T19:32:56;22.79;33.77
71514;DHT22;59335;46.652;21.272;2023-02-28T19:36:01;22.76;33.77
71514;DHT22;59335;46.652;21.272;2023-02-28T19:39:05;22.76;33.79
71514;DHT22;59335;46.652;21.272;2023-02-28T19:42:13;22.79;33.69
71514;DHT22;59335;46.652;21.272;2023-02-28T19:45:17;22.76;33.69
71514;DHT22;59335;46.652;21.272;2023-02-28T19:48:20;22.76;33.69
71514;DHT22;59335;46.652;21.272;2023-02-28T19:51:29;22.81;33.67
71514;DHT22;59335;46.652;21.272;2023-02-28T19:54:33;22.79;33.65
71514;DHT22;59335;46.652;21.272;2023-02-28T19:57:39;22.76;33.59
71514;DHT22;59335;46.652;21.272;2023-02-28T20:00:44;22.74;33.62
71514;DHT22;59335;46.652;21.272;2023-02-28T20:03:50;22.75;33.58
71514;DHT22;59335;46.652;21.272;2023-02-28T20:06:54;22.76;33.62
71514;DHT22;59335;46.652;21.272;2023-02-28T20:09:58;22.76;33.59
71514;DHT22;59335;46.652;21.272;2023-02-28T20:13:03;22.78;33.55
71514;DHT22;59335;46.652;21.272;2023-02-28T20:16:08;22.75;33.54
71514;DHT22;59335;46.652;21.272;2023-02-28T20:19:13;22.76;33.59
71514;DHT22;59335;46.652;21.272;2023-02-28T20:22:17;22.76;33.54
71514;DHT22;59335;46.652;21.272;2023-02-28T20:25:20;22.78;33.50
71514;DHT22;59335;46.652;21.272;2023-02-28T20:28:25;22.78;33.49
71514;DHT22;59335;46.652;21.272;2023-02-28T20:31:28;22.75;33.51
71514;DHT22;59335;46.652;21.272;2023-02-28T20:34:35;22.75;33.42
71514;DHT22;59335;46.652;21.272;2023-02-28T20:37:40;22.75;33.36
71514;DHT22;59335;46.652;21.272;2023-02-28T20:40:45;22.76;33.39
71514;DHT22;59335;46.652;21.272;2023-02-28T20:43:53;22.76;33.38
71514;DHT22;59335;46.652;21.272;2023-02-28T20:46:57;22.75;33.36
71514;DHT22;59335;46.652;21.272;2023-02-28T20:50:02;22.76;33.38
71514;DHT22;59335;46.652;21.272;2023-02-28T20:53:07;22.75;33.28
71514;DHT22;59335;46.652;21.272;2023-02-28T20:56:15;22.76;33.32
71514;DHT22;59335;46.652;21.272;2023-02-28T20:59:20;22.75;33.29
71514;DHT22;59335;46.652;21.272;2023-02-28T21:02:25;22.76;33.30
71514;DHT22;59335;46.652;21.272;2023-02-28T21:05:28;22.75;33.29
71514;DHT22;59335;46.652;21.272;2023-02-28T21:08:33;22.74;33.33
71514;DHT22;59335;46.652;21.272;2023-02-28T21:11:37;22.75;33.29
71514;DHT22;59335;46.652;21.272;2023-02-28T21:14:42;22.76;33.29
71514;DHT22;59335;46.652;21.272;2023-02-28T21:17:46;22.75;33.23
71514;DHT22;59335;46.652;21.272;2023-02-28T21:20:50;22.75;33.19
71514;DHT22;59335;46.652;21.272;2023-02-28T21:23:53;22.74;33.16
71514;DHT22;59335;46.652;21.272;2023-02-28T21:26:56;22.74;33.16
71514;DHT22;59335;46.652;21.272;2023-02-28T21:30:05;22.74;33.19
71514;DHT22;59335;46.652;21.272;2023-02-28T21:33:11;22.74;33.13
71514;DHT22;59335;46.652;21.272;2023-02-28T21:36:19;22.72;33.07
71514;DHT22;59335;46.652;21.272;2023-02-28T21:39:25;22.72;33.10
71514;DHT22;59335;46.652;21.272;2023-02-28T21:42:31;22.72;33.10
71514;DHT22;59335;46.652;21.272;2023-02-28T21:45:34;22.72;33.07
71514;DHT22;59335;46.652;21.272;2023-02-28T21:48:37;22.72;33.04
71514;DHT22;59335;46.652;21.272;2023-02-28T21:51:40;22.74;33.02